sensor_id;sensor_type;location;lat;lon;timestamp;pressure;altitude;pressure_sealevel;temperature;humidity
33280;BME280;20403;43.114;12.434;2023-05-25T00:01:17;98980.50;;;15.43;100.00
33280;BME280;20403;43.114;12.434;2023-05-25T00:03:42;98986.25;;;15.35;100.00
33280;BME280;20403;43.114;12.434;2023-05-25T00:06:10;98983.09;;;15.33;100.00
33280;BME280;20403;43.114;12.434;2023-05-25T00:08:37;98978.06;;;15.26;100.00
33280;BME280;20403;43.114;12.434;2023-05-25T00:11:04;98984.63;;;15.24;100.00
33280;BME280;20403;43.114;12.434;2023-05-25T00:13:30;98984.94;;;15.32;100.00
33280;BME280;20403;43.114;12.434;2023-05-25T00:15:56;98984.72;;;15.44;100.00
33280;BME280;20403;43.114;12.434;2023-05-25T00:18:21;98981.34;;;15.49;100.00
33280;BME280;20403;43.114;12.434;2023-05-25T00:23:22;98987.91;;;15.51;100.00
33280;BME280;20403;43.114;12.434;2023-05-25T00:25:47;98975.56;;;15.57;100.00
33280;BME280;20403;43.114;12.434;2023-05-25T00:28:12;98974.78;;;15.51;100.00
33280;BME280;20403;43.114;12.434;2023-05-25T00:30:38;98971.31;;;15.41;100.00
33280;BME280;20403;43.114;12.434;2023-05-25T00:33:03;98979.16;;;15.36;100.00
33280;BME280;20403;43.114;12.434;2023-05-25T00:35:29;98983.34;;;15.31;100.00
33280;BME280;20403;43.114;12.434;2023-05-25T00:37:54;98980.72;;;15.31;100.00
33280;BME280;20403;43.114;12.434;2023-05-25T00:40:20;98977.03;;;15.27;100.00
33280;BME280;20403;43.114;12.434;2023-05-25T00:42:46;98978.56;;;15.18;100.00
33280;BME280;20403;43.114;12.434;2023-05-25T00:45:11;98980.34;;;15.12;100.00
33280;BME280;20403;43.114;12.434;2023-05-25T00:47:38;98977.97;;;15.11;100.00
33280;BME280;20403;43.114;12.434;2023-05-25T00:50:07;98983.19;;;15.01;100.00
33280;BME280;20403;43.114;12.434;2023-05-25T00:52:33;98984.19;;;14.95;100.00
33280;BME280;20403;43.114;12.434;2023-05-25T00:54:59;98980.78;;;14.94;100.00
33280;BME280;20403;43.114;12.434;2023-05-25T00:57:28;98973.91;;;14.88;100.00
33280;BME280;20403;43.114;12.434;2023-05-25T00:59:54;98969.47;;;14.88;100.00
33280;BME280;20403;43.114;12.434;2023-05-25T01:02:22;98976.22;;;14.79;100.00
33280;BME280;20403;43.114;12.434;2023-05-25T01:04:51;98983.56;;;14.77;100.00
33280;BME280;20403;43.114;12.434;2023-05-25T01:07:23;98987.72;;;14.73;100.00
33280;BME280;20403;43.114;12.434;2023-05-25T01:10:01;98992.72;;;14.75;100.00
33280;BME280;20403;43.114;12.434;2023-05-25T01:12:31;98997.47;;;14.78;100.00
33280;BME280;20403;43.114;12.434;2023-05-25T01:15:01;98995.91;;;14.77;100.00
33280;BME280;20403;43.114;12.434;2023-05-25T01:17:28;98996.38;;;14.74;100.00
33280;BME280;20403;43.114;12.434;2023-05-25T01:19:53;98995.63;;;14.78;100.00
33280;BME280;20403;43.114;12.434;2023-05-25T01:24:58;99003.72;;;14.71;100.00
33280;BME280;20403;43.114;12.434;2023-05-25T01:29:58;98997.00;;;14.54;100.00
33280;BME280;20403;43.114;12.434;2023-05-25T01:32:25;98994.84;;;14.50;100.00
33280;BME280;20403;43.114;12.434;2023-05-25T01:34:51;98998.34;;;14.56;100.00
33280;BME280;20403;43.114;12.434;2023-05-25T01:37:17;98993.38;;;14.60;100.00
33280;BME280;20403;43.114;12.434;2023-05-25T01:39:43;98998.19;;;14.68;100.00
33280;BME280;20403;43.114;12.434;2023-05-25T01:42:09;98998.16;;;14.63;100.00
33280;BME280;20403;43.114;12.434;2023-05-25T01:44:35;98994.22;;;14.65;100.00
33280;BME280;20403;43.114;12.434;2023-05-25T01:52:25;99001.78;;;14.62;100.00
33280;BME280;20403;43.114;12.434;2023-05-25T01:54:58;99002.69;;;14.45;100.00
33280;BME280;20403;43.114;12.434;2023-05-25T01:57:25;99008.91;;;14.39;100.00
33280;BME280;20403;43.114;12.434;2023-05-25T01:59:54;99012.59;;;14.38;100.00
33280;BME280;20403;43.114;12.434;2023-05-25T02:02:24;99009.56;;;14.52;100.00
33280;BME280;20403;43.114;12.434;2023-05-25T02:04:52;99006.47;;;14.55;100.00
33280;BME280;20403;43.114;12.434;2023-05-25T02:07:19;99010.13;;;14.54;100.00
33280;BME280;20403;43.114;12.434;2023-05-25T02:09:44;99006.63;;;14.48;100.00
33280;BME280;20403;43.114;12.434;2023-05-25T02:12:10;99002.47;;;14.52;100.00
33280;BME280;20403;43.114;12.434;2023-05-25T02:14:35;99000.09;;;14.50;100.00
33280;BME280;20403;43.114;12.434;2023-05-25T02:17:01;99006.34;;;14.44;100.00
33280;BME280;20403;43.114;12.434;2023-05-25T02:19:28;99014.66;;;14.36;100.00
33280;BME280;20403;43.114;12.434;2023-05-25T02:21:53;99003.59;;;14.29;100.00
33280;BME280;20403;43.114;12.434;2023-05-25T02:24:19;98996.66;;;14.18;100.00
33280;BME280;20403;43.114;12.434;2023-05-25T02:26:44;99000.06;;;14.18;100.00
33280;BME280;20403;43.114;12.434;2023-05-25T02:29:09;98998.78;;;14.21;100.00
33280;BME280;20403;43.114;12.434;2023-05-25T02:31:36;99003.50;;;14.19;100.00
33280;BME280;20403;43.114;12.434;2023-05-25T02:34:01;98994.56;;;14.20;100.00
33280;BME280;20403;43.114;12.434;2023-05-25T02:36:27;98986.75;;;14.25;100.00
33280;BME280;20403;43.114;12.434;2023-05-25T02:38:53;98996.16;;;14.21;100.00
33280;BME280;20403;43.114;12.434;2023-05-25T02:41:19;98999.81;;;14.20;100.00
33280;BME280;20403;43.114;12.434;2023-05-25T02:43:45;98996.97;;;14.21;100.00
33280;BME280;20403;43.114;12.434;2023-05-25T02:46:10;98999.22;;;14.13;100.00
33280;BME280;20403;43.114;12.434;2023-05-25T02:48:36;99001.31;;;14.11;100.00
33280;BME280;20403;43.114;12.434;2023-05-25T02:51:01;99003.09;;;14.05;100.00
33280;BME280;20403;43.114;12.434;2023-05-25T02:53:28;99011.19;;;14.03;100.00
33280;BME280;20403;43.114;12.434;2023-05-25T02:55:53;99009.00;;;13.95;100.00
33280;BME280;20403;43.114;12.434;2023-05-25T02:58:18;99004.63;;;14.01;100.00
33280;BME280;20403;43.114;12.434;2023-05-25T03:00:44;99008.03;;;14.01;100.00
33280;BME280;20403;43.114;12.434;2023-05-25T03:03:10;99004.13;;;14.04;100.00
33280;BME280;20403;43.114;12.434;2023-05-25T03:05:36;99005.94;;;14.03;100.00
33280;BME280;20403;43.114;12.434;2023-05-25T03:08:02;99009.31;;;13.99;100.00
33280;BME280;20403;43.114;12.434;2023-05-25T03:10:28;99012.72;;;13.99;100.00
33280;BME280;20403;43.114;12.434;2023-05-25T03:12:53;99013.28;;;14.01;100.00
33280;BME280;20403;43.114;12.434;2023-05-25T03:15:19;99010.41;;;14.03;100.00
33280;BME280;20403;43.114;12.434;2023-05-25T03:17:44;99016.94;;;14.00;100.00
33280;BME280;20403;43.114;12.434;2023-05-25T03:20:10;99013.44;;;13.95;100.00
33280;BME280;20403;43.114;12.434;2023-05-25T03:22:35;99014.50;;;13.94;100.00
33280;BME280;20403;43.114;12.434;2023-05-25T03:25:02;99011.06;;;13.93;100.00
33280;BME280;20403;43.114;12.434;2023-05-25T03:27:27;99027.06;;;13.92;100.00
33280;BME280;20403;43.114;12.434;2023-05-25T03:29:53;99028.41;;;13.94;100.00
33280;BME280;20403;43.114;12.434;2023-05-25T03:32:18;99025.78;;;13.94;100.00
33280;BME280;20403;43.114;12.434;2023-05-25T03:34:44;99032.72;;;13.83;100.00
33280;BME280;20403;43.114;12.434;2023-05-25T03:37:10;99038.13;;;13.77;100.00
33280;BME280;20403;43.114;12.434;2023-05-25T03:39:35;99035.69;;;13.70;100.00
33280;BME280;20403;43.114;12.434;2023-05-25T03:42:01;99037.84;;;13.73;100.00
33280;BME280;20403;43.114;12.434;2023-05-25T03:44:27;99034.19;;;13.74;100.00
33280;BME280;20403;43.114;12.434;2023-05-25T03:46:53;99042.09;;;13.79;100.00
33280;BME280;20403;43.114;12.434;2023-05-25T03:49:18;99048.63;;;13.77;100.00
33280;BME280;20403;43.114;12.434;2023-05-25T03:51:43;99047.56;;;13.73;100.00
33280;BME280;20403;43.114;12.434;2023-05-25T03:54:09;99051.91;;;13.67;100.00
33280;BME280;20403;43.114;12.434;2023-05-25T03:56:35;99059.53;;;13.69;100.00
33280;BME280;20403;43.114;12.434;2023-05-25T03:59:00;99053.97;;;13.65;100.00
33280;BME280;20403;43.114;12.434;2023-05-25T04:01:26;99069.75;;;13.70;100.00
33280;BME280;20403;43.114;12.434;2023-05-25T04:03:54;99059.59;;;13.74;100.00
33280;BME280;20403;43.114;12.434;2023-05-25T04:06:20;99060.28;;;13.86;100.00
33280;BME280;20403;43.114;12.434;2023-05-25T04:08:45;99065.34;;;13.93;100.00
33280;BME280;20403;43.114;12.434;2023-05-25T04:11:12;99059.84;;;13.94;100.00
33280;BME280;20403;43.114;12.434;2023-05-25T04:13:37;99068.56;;;14.00;100.00
33280;BME280;20403;43.114;12.434;2023-05-25T04:16:05;99065.69;;;14.01;100.00
33280;BME280;20403;43.114;12.434;2023-05-25T04:18:30;99070.72;;;14.03;100.00
33280;BME280;20403;43.114;12.434;2023-05-25T04:20:56;99068.00;;;13.98;100.00
33280;BME280;20403;43.114;12.434;2023-05-25T04:23:21;99065.94;;;14.00;100.00
33280;BME280;20403;43.114;12.434;2023-05-25T04:25:47;99073.00;;;13.99;100.00
33280;BME280;20403;43.114;12.434;2023-05-25T04:28:15;99073.25;;;13.98;100.00
33280;BME280;20403;43.114;12.434;2023-05-25T04:30:40;99071.91;;;13.95;100.00
33280;BME280;20403;43.114;12.434;2023-05-25T04:33:06;99087.72;;;14.00;100.00
33280;BME280;20403;43.114;12.434;2023-05-25T04:35:31;99084.06;;;14.01;100.00
33280;BME280;20403;43.114;12.434;2023-05-25T04:37:56;99084.59;;;14.03;100.00
33280;BME280;20403;43.114;12.434;2023-05-25T04:40:24;99089.50;;;14.17;100.00
33280;BME280;20403;43.114;12.434;2023-05-25T04:42:52;99087.56;;;14.34;100.00
33280;BME280;20403;43.114;12.434;2023-05-25T04:45:18;99091.66;;;14.47;100.00
33280;BME280;20403;43.114;12.434;2023-05-25T04:47:45;99094.56;;;14.50;100.00
33280;BME280;20403;43.114;12.434;2023-05-25T04:50:12;99098.34;;;14.60;100.00
33280;BME280;20403;43.114;12.434;2023-05-25T04:52:38;99102.69;;;14.76;100.00
33280;BME280;20403;43.114;12.434;2023-05-25T04:55:03;99103.91;;;14.90;100.00
33280;BME280;20403;43.114;12.434;2023-05-25T04:57:29;99107.41;;;15.06;100.00
33280;BME280;20403;43.114;12.434;2023-05-25T04:59:56;99116.19;;;15.17;100.00
33280;BME280;20403;43.114;12.434;2023-05-25T05:02:21;99119.19;;;15.31;100.00
33280;BME280;20403;43.114;12.434;2023-05-25T05:04:47;99114.78;;;15.42;100.00
33280;BME280;20403;43.114;12.434;2023-05-25T05:07:16;99117.22;;;15.53;100.00
33280;BME280;20403;43.114;12.434;2023-05-25T05:09:41;99111.22;;;15.58;100.00
33280;BME280;20403;43.114;12.434;2023-05-25T05:12:07;99114.09;;;15.57;100.00
33280;BME280;20403;43.114;12.434;2023-05-25T05:14:32;99116.69;;;15.51;100.00
33280;BME280;20403;43.114;12.434;2023-05-25T05:16:58;99117.44;;;15.47;100.00
33280;BME280;20403;43.114;12.434;2023-05-25T05:19:23;99122.19;;;15.50;100.00
33280;BME280;20403;43.114;12.434;2023-05-25T05:21:49;99122.19;;;15.50;100.00
33280;BME280;20403;43.114;12.434;2023-05-25T05:24:14;99127.19;;;15.51;100.00
33280;BME280;20403;43.114;12.434;2023-05-25T05:26:40;99129.88;;;15.62;100.00
33280;BME280;20403;43.114;12.434;2023-05-25T05:29:06;99121.34;;;15.77;100.00
33280;BME280;20403;43.114;12.434;2023-05-25T05:31:31;99118.75;;;15.87;100.00
33280;BME280;20403;43.114;12.434;2023-05-25T05:33:56;99115.63;;;15.90;100.00
33280;BME280;20403;43.114;12.434;2023-05-25T05:36:22;99114.34;;;15.98;100.00
33280;BME280;20403;43.114;12.434;2023-05-25T05:38:47;99112.81;;;16.07;100.00
33280;BME280;20403;43.114;12.434;2023-05-25T05:41:13;99118.38;;;16.15;100.00
33280;BME280;20403;43.114;12.434;2023-05-25T05:43:39;99132.09;;;16.28;100.00
33280;BME280;20403;43.114;12.434;2023-05-25T05:46:07;99125.81;;;16.39;100.00
33280;BME280;20403;43.114;12.434;2023-05-25T05:48:32;99127.44;;;16.55;100.00
33280;BME280;20403;43.114;12.434;2023-05-25T05:50:57;99120.84;;;16.63;100.00
33280;BME280;20403;43.114;12.434;2023-05-25T05:53:23;99122.19;;;16.71;100.00
33280;BME280;20403;43.114;12.434;2023-05-25T05:55:48;99115.34;;;16.70;100.00
33280;BME280;20403;43.114;12.434;2023-05-25T05:58:17;99115.63;;;16.73;100.00
33280;BME280;20403;43.114;12.434;2023-05-25T06:00:43;99118.81;;;16.91;100.00
33280;BME280;20403;43.114;12.434;2023-05-25T06:03:08;99117.50;;;16.93;100.00
33280;BME280;20403;43.114;12.434;2023-05-25T06:05:34;99115.91;;;16.97;100.00
33280;BME280;20403;43.114;12.434;2023-05-25T06:07:59;99109.88;;;17.02;100.00
33280;BME280;20403;43.114;12.434;2023-05-25T06:10:25;99118.84;;;17.06;100.00
33280;BME280;20403;43.114;12.434;2023-05-25T06:12:51;99121.47;;;17.11;100.00
33280;BME280;20403;43.114;12.434;2023-05-25T06:15:16;99120.13;;;17.29;100.00
33280;BME280;20403;43.114;12.434;2023-05-25T06:17:42;99119.88;;;17.36;100.00
33280;BME280;20403;43.114;12.434;2023-05-25T06:20:08;99115.09;;;17.53;100.00
33280;BME280;20403;43.114;12.434;2023-05-25T06:22:34;99126.44;;;17.59;100.00
33280;BME280;20403;43.114;12.434;2023-05-25T06:25:00;99116.13;;;17.62;100.00
33280;BME280;20403;43.114;12.434;2023-05-25T06:27:25;99115.81;;;17.74;100.00
33280;BME280;20403;43.114;12.434;2023-05-25T06:29:50;99119.25;;;17.80;100.00
33280;BME280;20403;43.114;12.434;2023-05-25T06:32:16;99122.66;;;17.96;100.00
33280;BME280;20403;43.114;12.434;2023-05-25T06:34:42;99127.63;;;18.08;100.00
33280;BME280;20403;43.114;12.434;2023-05-25T06:37:07;99132.63;;;18.14;100.00
33280;BME280;20403;43.114;12.434;2023-05-25T06:39:33;99127.56;;;18.23;100.00
33280;BME280;20403;43.114;12.434;2023-05-25T06:41:58;99127.22;;;18.40;100.00
33280;BME280;20403;43.114;12.434;2023-05-25T06:44:23;99125.06;;;18.47;100.00
33280;BME280;20403;43.114;12.434;2023-05-25T06:46:49;99126.63;;;18.53;100.00
33280;BME280;20403;43.114;12.434;2023-05-25T06:49:14;99129.41;;;18.72;100.00
33280;BME280;20403;43.114;12.434;2023-05-25T06:51:40;99136.16;;;18.94;100.00
33280;BME280;20403;43.114;12.434;2023-05-25T06:54:05;99129.44;;;19.12;100.00
33280;BME280;20403;43.114;12.434;2023-05-25T06:56:32;99129.66;;;19.44;100.00
33280;BME280;20403;43.114;12.434;2023-05-25T06:58:58;99129.19;;;19.66;100.00
33280;BME280;20403;43.114;12.434;2023-05-25T07:01:23;99134.91;;;19.79;100.00
33280;BME280;20403;43.114;12.434;2023-05-25T07:03:48;99136.97;;;19.82;100.00
33280;BME280;20403;43.114;12.434;2023-05-25T07:06:14;99134.88;;;20.03;100.00
33280;BME280;20403;43.114;12.434;2023-05-25T07:08:41;99137.63;;;20.17;100.00
33280;BME280;20403;43.114;12.434;2023-05-25T07:11:06;99137.13;;;20.14;100.00
33280;BME280;20403;43.114;12.434;2023-05-25T07:13:34;99139.94;;;20.23;100.00
33280;BME280;20403;43.114;12.434;2023-05-25T07:16:00;99132.59;;;20.39;100.00
33280;BME280;20403;43.114;12.434;2023-05-25T07:18:25;99133.59;;;20.43;100.00
33280;BME280;20403;43.114;12.434;2023-05-25T07:20:50;99126.47;;;20.63;100.00
33280;BME280;20403;43.114;12.434;2023-05-25T07:23:16;99128.63;;;20.80;100.00
33280;BME280;20403;43.114;12.434;2023-05-25T07:25:41;99120.22;;;20.91;100.00
33280;BME280;20403;43.114;12.434;2023-05-25T07:28:07;99122.91;;;21.05;100.00
33280;BME280;20403;43.114;12.434;2023-05-25T07:30:33;99123.59;;;21.11;100.00
33280;BME280;20403;43.114;12.434;2023-05-25T07:32:58;99115.97;;;21.23;100.00
33280;BME280;20403;43.114;12.434;2023-05-25T07:35:24;99123.63;;;21.57;100.00
33280;BME280;20403;43.114;12.434;2023-05-25T07:37:57;99121.47;;;21.59;100.00
33280;BME280;20403;43.114;12.434;2023-05-25T07:40:22;99132.59;;;21.75;100.00
33280;BME280;20403;43.114;12.434;2023-05-25T07:42:48;99126.00;;;21.87;100.00
33280;BME280;20403;43.114;12.434;2023-05-25T07:45:13;99130.31;;;22.10;100.00
33280;BME280;20403;43.114;12.434;2023-05-25T07:47:40;99123.81;;;22.16;100.00
33280;BME280;20403;43.114;12.434;2023-05-25T07:50:05;99128.16;;;22.26;100.00
33280;BME280;20403;43.114;12.434;2023-05-25T07:52:31;99130.09;;;22.34;100.00
33280;BME280;20403;43.114;12.434;2023-05-25T07:54:56;99129.06;;;22.58;100.00
33280;BME280;20403;43.114;12.434;2023-05-25T07:57:22;99121.72;;;22.77;100.00
33280;BME280;20403;43.114;12.434;2023-05-25T07:59:47;99126.16;;;23.04;100.00
33280;BME280;20403;43.114;12.434;2023-05-25T08:02:12;99122.50;;;23.23;100.00
33280;BME280;20403;43.114;12.434;2023-05-25T08:04:38;99129.66;;;23.45;100.00
33280;BME280;20403;43.114;12.434;2023-05-25T08:07:03;99129.75;;;23.62;100.00
33280;BME280;20403;43.114;12.434;2023-05-25T08:09:29;99127.31;;;23.75;100.00
33280;BME280;20403;43.114;12.434;2023-05-25T08:11:54;99132.44;;;23.71;100.00
33280;BME280;20403;43.114;12.434;2023-05-25T08:14:20;99135.03;;;23.54;100.00
33280;BME280;20403;43.114;12.434;2023-05-25T08:16:45;99127.22;;;23.57;100.00
33280;BME280;20403;43.114;12.434;2023-05-25T08:19:10;99131.28;;;23.63;100.00
33280;BME280;20403;43.114;12.434;2023-05-25T08:21:36;99133.59;;;23.79;100.00
33280;BME280;20403;43.114;12.434;2023-05-25T08:24:01;99138.94;;;23.87;100.00
33280;BME280;20403;43.114;12.434;2023-05-25T08:26:29;99131.78;;;24.05;100.00
33280;BME280;20403;43.114;12.434;2023-05-25T08:28:54;99138.41;;;24.34;100.00
33280;BME280;20403;43.114;12.434;2023-05-25T08:31:20;99135.91;;;24.46;100.00
33280;BME280;20403;43.114;12.434;2023-05-25T08:33:46;99128.56;;;24.61;100.00
33280;BME280;20403;43.114;12.434;2023-05-25T08:36:11;99126.53;;;24.49;100.00
33280;BME280;20403;43.114;12.434;2023-05-25T08:38:36;99132.50;;;24.72;100.00
33280;BME280;20403;43.114;12.434;2023-05-25T08:41:06;99134.72;;;24.61;100.00
33280;BME280;20403;43.114;12.434;2023-05-25T08:43:32;99125.75;;;24.48;100.00
33280;BME280;20403;43.114;12.434;2023-05-25T08:46:05;99133.13;;;24.69;100.00
33280;BME280;20403;43.114;12.434;2023-05-25T08:48:35;99120.22;;;24.88;100.00
33280;BME280;20403;43.114;12.434;2023-05-25T08:51:05;99129.16;;;25.01;100.00
33280;BME280;20403;43.114;12.434;2023-05-25T08:53:34;99123.66;;;25.15;100.00
33280;BME280;20403;43.114;12.434;2023-05-25T08:56:01;99127.75;;;25.21;100.00
33280;BME280;20403;43.114;12.434;2023-05-25T08:58:38;99121.09;;;25.45;100.00
33280;BME280;20403;43.114;12.434;2023-05-25T09:01:08;99122.09;;;25.70;100.00
33280;BME280;20403;43.114;12.434;2023-05-25T09:03:34;99120.81;;;26.06;100.00
33280;BME280;20403;43.114;12.434;2023-05-25T09:06:00;99120.59;;;25.90;100.00
33280;BME280;20403;43.114;12.434;2023-05-25T09:08:26;99123.53;;;25.97;100.00
33280;BME280;20403;43.114;12.434;2023-05-25T09:10:54;99132.09;;;26.11;100.00
33280;BME280;20403;43.114;12.434;2023-05-25T09:13:20;99118.66;;;26.20;100.00
33280;BME280;20403;43.114;12.434;2023-05-25T09:15:46;99123.91;;;26.16;100.00
33280;BME280;20403;43.114;12.434;2023-05-25T09:18:12;99123.38;;;26.23;100.00
33280;BME280;20403;43.114;12.434;2023-05-25T09:20:37;99130.28;;;26.24;100.00
33280;BME280;20403;43.114;12.434;2023-05-25T09:23:04;99119.22;;;26.34;100.00
33280;BME280;20403;43.114;12.434;2023-05-25T09:25:29;99127.88;;;26.73;100.00
33280;BME280;20403;43.114;12.434;2023-05-25T09:27:56;99130.97;;;26.96;98.39
33280;BME280;20403;43.114;12.434;2023-05-25T09:30:25;99126.78;;;26.74;100.00
33280;BME280;20403;43.114;12.434;2023-05-25T09:33:08;99125.16;;;26.61;100.00
33280;BME280;20403;43.114;12.434;2023-05-25T09:35:33;99120.19;;;26.51;96.00
33280;BME280;20403;43.114;12.434;2023-05-25T09:37:59;99119.69;;;26.91;100.00
33280;BME280;20403;43.114;12.434;2023-05-25T09:40:25;99113.91;;;27.22;98.54
33280;BME280;20403;43.114;12.434;2023-05-25T09:42:50;99119.97;;;27.56;100.00
33280;BME280;20403;43.114;12.434;2023-05-25T09:45:15;99124.13;;;27.90;88.84
33280;BME280;20403;43.114;12.434;2023-05-25T09:47:41;99125.09;;;27.98;88.23
33280;BME280;20403;43.114;12.434;2023-05-25T09:50:07;99122.19;;;27.78;77.78
33280;BME280;20403;43.114;12.434;2023-05-25T09:52:32;99124.84;;;27.41;93.02
33280;BME280;20403;43.114;12.434;2023-05-25T09:54:58;99120.75;;;27.69;91.65
33280;BME280;20403;43.114;12.434;2023-05-25T09:57:23;99127.44;;;28.12;83.40
33280;BME280;20403;43.114;12.434;2023-05-25T09:59:51;99132.63;;;28.33;78.35
33280;BME280;20403;43.114;12.434;2023-05-25T10:02:16;99128.53;;;28.23;71.42
33280;BME280;20403;43.114;12.434;2023-05-25T10:04:42;99124.75;;;28.12;80.08
33280;BME280;20403;43.114;12.434;2023-05-25T10:07:07;99124.84;;;28.27;83.64
33280;BME280;20403;43.114;12.434;2023-05-25T10:09:38;99128.94;;;28.37;75.93
33280;BME280;20403;43.114;12.434;2023-05-25T10:12:07;99134.28;;;28.37;84.63
33280;BME280;20403;43.114;12.434;2023-05-25T10:14:35;99126.31;;;28.65;74.82
33280;BME280;20403;43.114;12.434;2023-05-25T10:17:03;99122.63;;;28.70;75.57
33280;BME280;20403;43.114;12.434;2023-05-25T10:19:37;99119.38;;;28.64;82.55
33280;BME280;20403;43.114;12.434;2023-05-25T10:22:18;99126.44;;;28.85;76.49
33280;BME280;20403;43.114;12.434;2023-05-25T10:25:07;99114.22;;;29.16;70.23
33280;BME280;20403;43.114;12.434;2023-05-25T10:27:46;99115.78;;;29.48;66.75
33280;BME280;20403;43.114;12.434;2023-05-25T10:30:14;99104.03;;;28.93;69.62
33280;BME280;20403;43.114;12.434;2023-05-25T10:32:41;99123.31;;;28.02;74.61
33280;BME280;20403;43.114;12.434;2023-05-25T10:35:07;99122.06;;;27.38;86.60
33280;BME280;20403;43.114;12.434;2023-05-25T10:37:33;99125.38;;;26.89;84.84
33280;BME280;20403;43.114;12.434;2023-05-25T10:40:00;99118.88;;;26.57;85.79
33280;BME280;20403;43.114;12.434;2023-05-25T10:42:26;99108.13;;;26.24;91.25
33280;BME280;20403;43.114;12.434;2023-05-25T10:44:55;99107.50;;;25.97;100.00
33280;BME280;20403;43.114;12.434;2023-05-25T10:47:21;99108.81;;;25.82;98.71
33280;BME280;20403;43.114;12.434;2023-05-25T10:49:55;99108.25;;;25.68;100.00
33280;BME280;20403;43.114;12.434;2023-05-25T10:52:26;99113.31;;;25.61;100.00
33280;BME280;20403;43.114;12.434;2023-05-25T10:54:57;99116.28;;;25.68;100.00
33280;BME280;20403;43.114;12.434;2023-05-25T10:57:25;99118.06;;;25.93;100.00
33280;BME280;20403;43.114;12.434;2023-05-25T10:59:53;99127.16;;;25.92;97.84
33280;BME280;20403;43.114;12.434;2023-05-25T11:02:26;99126.25;;;25.88;100.00
33280;BME280;20403;43.114;12.434;2023-05-25T11:05:45;99121.50;;;25.94;100.00
33280;BME280;20403;43.114;12.434;2023-05-25T11:08:06;99128.53;;;26.28;95.58
33280;BME280;20403;43.114;12.434;2023-05-25T11:18:57;99121.94;;;25.19;100.00
33280;BME280;20403;43.114;12.434;2023-05-25T11:24:02;99126.06;;;24.56;100.00
33280;BME280;20403;43.114;12.434;2023-05-25T11:26:29;99134.94;;;24.25;100.00
33280;BME280;20403;43.114;12.434;2023-05-25T11:28:56;99133.78;;;23.82;100.00
33280;BME280;20403;43.114;12.434;2023-05-25T11:31:32;99130.91;;;23.47;100.00
33280;BME280;20403;43.114;12.434;2023-05-25T11:33:59;99127.47;;;23.16;100.00
33280;BME280;20403;43.114;12.434;2023-05-25T11:36:29;99126.47;;;22.89;100.00
33280;BME280;20403;43.114;12.434;2023-05-25T11:39:03;99119.38;;;22.62;100.00
33280;BME280;20403;43.114;12.434;2023-05-25T11:41:29;99113.13;;;22.58;100.00
33280;BME280;20403;43.114;12.434;2023-05-25T11:44:05;99115.06;;;22.66;100.00
33280;BME280;20403;43.114;12.434;2023-05-25T11:46:33;99121.53;;;22.96;100.00
33280;BME280;20403;43.114;12.434;2023-05-25T11:48:59;99109.41;;;23.35;100.00
33280;BME280;20403;43.114;12.434;2023-05-25T11:51:27;99110.91;;;23.90;100.00
33280;BME280;20403;43.114;12.434;2023-05-25T11:53:53;99104.25;;;24.53;100.00
33280;BME280;20403;43.114;12.434;2023-05-25T11:56:19;99097.03;;;24.80;100.00
33280;BME280;20403;43.114;12.434;2023-05-25T11:58:46;99091.38;;;24.90;100.00
33280;BME280;20403;43.114;12.434;2023-05-25T12:01:22;99092.19;;;25.47;100.00
33280;BME280;20403;43.114;12.434;2023-05-25T12:03:49;99094.53;;;25.78;100.00
33280;BME280;20403;43.114;12.434;2023-05-25T12:06:27;99091.50;;;26.18;100.00
33280;BME280;20403;43.114;12.434;2023-05-25T12:08:54;99090.53;;;26.65;100.00
33280;BME280;20403;43.114;12.434;2023-05-25T12:11:30;99089.47;;;27.23;100.00
33280;BME280;20403;43.114;12.434;2023-05-25T12:13:56;99088.81;;;27.63;98.57
33280;BME280;20403;43.114;12.434;2023-05-25T12:16:22;99093.16;;;28.05;94.98
33280;BME280;20403;43.114;12.434;2023-05-25T12:18:50;99089.63;;;28.29;100.00
33280;BME280;20403;43.114;12.434;2023-05-25T12:21:15;99084.34;;;28.45;87.80
33280;BME280;20403;43.114;12.434;2023-05-25T12:23:41;99071.69;;;28.74;85.96
33280;BME280;20403;43.114;12.434;2023-05-25T12:26:09;99071.69;;;28.74;70.54
33280;BME280;20403;43.114;12.434;2023-05-25T12:28:38;99080.81;;;28.85;70.39
33280;BME280;20403;43.114;12.434;2023-05-25T12:31:23;99072.25;;;28.95;74.90
33280;BME280;20403;43.114;12.434;2023-05-25T12:34:08;99078.22;;;28.73;68.08
33280;BME280;20403;43.114;12.434;2023-05-25T12:39:12;99078.34;;;28.64;69.72
33280;BME280;20403;43.114;12.434;2023-05-25T12:41:42;99072.06;;;28.88;72.37
33280;BME280;20403;43.114;12.434;2023-05-25T12:44:27;99078.44;;;28.67;65.20
33280;BME280;20403;43.114;12.434;2023-05-25T12:46:56;99081.34;;;28.75;75.39
33280;BME280;20403;43.114;12.434;2023-05-25T12:49:33;99071.41;;;28.63;63.59
33280;BME280;20403;43.114;12.434;2023-05-25T12:52:00;99072.09;;;28.32;69.13
33280;BME280;20403;43.114;12.434;2023-05-25T12:57:01;99067.44;;;28.16;72.44
33280;BME280;20403;43.114;12.434;2023-05-25T12:59:30;99057.44;;;28.29;68.51
33280;BME280;20403;43.114;12.434;2023-05-25T13:01:56;99054.47;;;28.59;74.69
33280;BME280;20403;43.114;12.434;2023-05-25T13:04:21;99055.09;;;28.68;69.43
33280;BME280;20403;43.114;12.434;2023-05-25T13:06:47;99057.41;;;28.69;70.17
33280;BME280;20403;43.114;12.434;2023-05-25T13:09:13;99051.00;;;28.74;70.24